sensor_id;sensor_type;location;lat;lon;timestamp;P1;durP1;ratioP1;P2;durP2;ratioP2
30617;SDS011;17384;51.214;9.202;2022-11-15T00:02:25;15.18;;;9.15;;
30617;SDS011;17384;51.214;9.202;2022-11-15T00:04:51;15.40;;;9.93;;
30617;SDS011;17384;51.214;9.202;2022-11-15T00:07:16;16.00;;;9.77;;
30617;SDS011;17384;51.214;9.202;2022-11-15T00:09:41;14.48;;;9.45;;
30617;SDS011;17384;51.214;9.202;2022-11-15T00:12:07;13.48;;;9.00;;
30617;SDS011;17384;51.214;9.202;2022-11-15T00:14:32;17.13;;;9.25;;
30617;SDS011;17384;51.214;9.202;2022-11-15T00:16:57;15.57;;;9.75;;
30617;SDS011;17384;51.214;9.202;2022-11-15T00:19:23;16.58;;;8.70;;
30617;SDS011;17384;51.214;9.202;2022-11-15T00:21:48;12.52;;;8.10;;
30617;SDS011;17384;51.214;9.202;2022-11-15T00:24:13;16.83;;;8.48;;
30617;SDS011;17384;51.214;9.202;2022-11-15T00:26:38;16.73;;;9.20;;
30617;SDS011;17384;51.214;9.202;2022-11-15T00:29:04;11.80;;;7.90;;
30617;SDS011;17384;51.214;9.202;2022-11-15T00:31:29;15.80;;;8.90;;
30617;SDS011;17384;51.214;9.202;2022-11-15T00:33:54;11.70;;;7.78;;
30617;SDS011;17384;51.214;9.202;2022-11-15T00:36:20;13.02;;;7.68;;
30617;SDS011;17384;51.214;9.202;2022-11-15T00:38:45;14.25;;;8.27;;
30617;SDS011;17384;51.214;9.202;2022-11-15T00:41:10;13.13;;;7.70;;
30617;SDS011;17384;51.214;9.202;2022-11-15T00:43:36;13.15;;;7.07;;
30617;SDS011;17384;51.214;9.202;2022-11-15T00:46:01;12.75;;;8.52;;
30617;SDS011;17384;51.214;9.202;2022-11-15T00:48:27;12.82;;;7.63;;
30617;SDS011;17384;51.214;9.202;2022-11-15T00:50:52;17.08;;;7.95;;
30617;SDS011;17384;51.214;9.202;2022-11-15T00:53:18;16.25;;;7.25;;
30617;SDS011;17384;51.214;9.202;2022-11-15T00:55:43;15.73;;;7.72;;
30617;SDS011;17384;51.214;9.202;2022-11-15T00:58:08;18.02;;;7.78;;
30617;SDS011;17384;51.214;9.202;2022-11-15T01:00:34;16.23;;;7.68;;
30617;SDS011;17384;51.214;9.202;2022-11-15T01:03:02;18.90;;;7.13;;
30617;SDS011;17384;51.214;9.202;2022-11-15T01:05:27;17.52;;;7.38;;
30617;SDS011;17384;51.214;9.202;2022-11-15T01:07:53;13.50;;;6.90;;
30617;SDS011;17384;51.214;9.202;2022-11-15T01:10:18;12.30;;;6.90;;
30617;SDS011;17384;51.214;9.202;2022-11-15T01:12:44;11.32;;;7.72;;
30617;SDS011;17384;51.214;9.202;2022-11-15T01:15:09;14.48;;;6.78;;
30617;SDS011;17384;51.214;9.202;2022-11-15T01:17:35;14.02;;;6.60;;
30617;SDS011;17384;51.214;9.202;2022-11-15T01:20:00;11.23;;;7.07;;
30617;SDS011;17384;51.214;9.202;2022-11-15T01:22:25;9.77;;;6.35;;
30617;SDS011;17384;51.214;9.202;2022-11-15T01:24:50;12.93;;;6.93;;
30617;SDS011;17384;51.214;9.202;2022-11-15T01:27:16;9.95;;;6.00;;
30617;SDS011;17384;51.214;9.202;2022-11-15T01:29:41;15.10;;;6.60;;
30617;SDS011;17384;51.214;9.202;2022-11-15T01:32:07;10.88;;;6.05;;
30617;SDS011;17384;51.214;9.202;2022-11-15T01:34:32;14.93;;;6.55;;
30617;SDS011;17384;51.214;9.202;2022-11-15T01:36:57;13.18;;;6.90;;
30617;SDS011;17384;51.214;9.202;2022-11-15T01:39:23;11.80;;;6.00;;
30617;SDS011;17384;51.214;9.202;2022-11-15T01:41:49;13.27;;;6.38;;
30617;SDS011;17384;51.214;9.202;2022-11-15T01:46:58;12.27;;;6.03;;
30617;SDS011;17384;51.214;9.202;2022-11-15T01:49:24;13.40;;;6.15;;
30617;SDS011;17384;51.214;9.202;2022-11-15T01:51:51;12.43;;;5.65;;
30617;SDS011;17384;51.214;9.202;2022-11-15T01:54:19;9.40;;;6.22;;
30617;SDS011;17384;51.214;9.202;2022-11-15T01:56:49;13.68;;;6.18;;
30617;SDS011;17384;51.214;9.202;2022-11-15T01:59:16;10.98;;;5.95;;
30617;SDS011;17384;51.214;9.202;2022-11-15T02:01:41;13.77;;;6.07;;
30617;SDS011;17384;51.214;9.202;2022-11-15T02:04:09;9.82;;;6.43;;
30617;SDS011;17384;51.214;9.202;2022-11-15T02:06:36;10.30;;;5.30;;
30617;SDS011;17384;51.214;9.202;2022-11-15T02:09:01;11.55;;;6.68;;
30617;SDS011;17384;51.214;9.202;2022-11-15T02:11:26;10.55;;;6.30;;
30617;SDS011;17384;51.214;9.202;2022-11-15T02:13:52;9.25;;;5.88;;
30617;SDS011;17384;51.214;9.202;2022-11-15T02:24:09;13.43;;;6.30;;
30617;SDS011;17384;51.214;9.202;2022-11-15T02:36:43;12.63;;;6.13;;
30617;SDS011;17384;51.214;9.202;2022-11-15T02:39:19;9.68;;;6.15;;
30617;SDS011;17384;51.214;9.202;2022-11-15T02:41:47;13.85;;;5.70;;
30617;SDS011;17384;51.214;9.202;2022-11-15T02:46:48;10.37;;;6.10;;
30617;SDS011;17384;51.214;9.202;2022-11-15T02:49:33;8.68;;;6.38;;
30617;SDS011;17384;51.214;9.202;2022-11-15T02:51:59;15.30;;;6.45;;
30617;SDS011;17384;51.214;9.202;2022-11-15T02:54:26;12.43;;;5.75;;
30617;SDS011;17384;51.214;9.202;2022-11-15T02:56:53;12.27;;;5.93;;
30617;SDS011;17384;51.214;9.202;2022-11-15T03:07:16;15.32;;;6.57;;
30617;SDS011;17384;51.214;9.202;2022-11-15T03:09:50;10.68;;;5.15;;
30617;SDS011;17384;51.214;9.202;2022-11-15T03:12:21;9.38;;;5.65;;
30617;SDS011;17384;51.214;9.202;2022-11-15T03:15:01;11.52;;;5.68;;
30617;SDS011;17384;51.214;9.202;2022-11-15T03:17:33;12.68;;;6.40;;
30617;SDS011;17384;51.214;9.202;2022-11-15T03:20:01;10.00;;;6.05;;
30617;SDS011;17384;51.214;9.202;2022-11-15T03:22:29;9.57;;;6.10;;
30617;SDS011;17384;51.214;9.202;2022-11-15T03:24:58;11.68;;;5.95;;
30617;SDS011;17384;51.214;9.202;2022-11-15T03:27:28;10.80;;;6.38;;
30617;SDS011;17384;51.214;9.202;2022-11-15T03:29:57;8.20;;;5.78;;
30617;SDS011;17384;51.214;9.202;2022-11-15T03:32:25;17.30;;;6.35;;
30617;SDS011;17384;51.214;9.202;2022-11-15T03:37:16;10.52;;;5.80;;
30617;SDS011;17384;51.214;9.202;2022-11-15T03:39:43;12.65;;;5.82;;
30617;SDS011;17384;51.214;9.202;2022-11-15T03:42:26;9.23;;;6.20;;
30617;SDS011;17384;51.214;9.202;2022-11-15T03:47:20;10.85;;;6.50;;
30617;SDS011;17384;51.214;9.202;2022-11-15T03:49:50;10.40;;;5.15;;
30617;SDS011;17384;51.214;9.202;2022-11-15T03:52:19;10.43;;;5.20;;
30617;SDS011;17384;51.214;9.202;2022-11-15T03:54:55;9.70;;;6.35;;
30617;SDS011;17384;51.214;9.202;2022-11-15T03:57:20;8.57;;;5.00;;
30617;SDS011;17384;51.214;9.202;2022-11-15T03:59:46;11.85;;;7.05;;
30617;SDS011;17384;51.214;9.202;2022-11-15T04:02:11;16.30;;;6.35;;
30617;SDS011;17384;51.214;9.202;2022-11-15T04:04:37;12.88;;;6.13;;
30617;SDS011;17384;51.214;9.202;2022-11-15T04:07:02;10.38;;;5.95;;
30617;SDS011;17384;51.214;9.202;2022-11-15T04:09:27;11.48;;;5.65;;
30617;SDS011;17384;51.214;9.202;2022-11-15T04:11:53;10.18;;;6.43;;
30617;SDS011;17384;51.214;9.202;2022-11-15T04:14:18;12.50;;;5.97;;
30617;SDS011;17384;51.214;9.202;2022-11-15T04:16:43;14.73;;;6.68;;
30617;SDS011;17384;51.214;9.202;2022-11-15T04:19:09;14.95;;;6.82;;
30617;SDS011;17384;51.214;9.202;2022-11-15T04:21:52;11.18;;;5.82;;
30617;SDS011;17384;51.214;9.202;2022-11-15T04:24:36;9.98;;;6.15;;
30617;SDS011;17384;51.214;9.202;2022-11-15T04:27:02;13.57;;;6.20;;
30617;SDS011;17384;51.214;9.202;2022-11-15T04:29:27;10.90;;;6.10;;
30617;SDS011;17384;51.214;9.202;2022-11-15T04:32:02;9.77;;;5.20;;
30617;SDS011;17384;51.214;9.202;2022-11-15T04:34:27;13.13;;;5.63;;
30617;SDS011;17384;51.214;9.202;2022-11-15T04:36:53;10.75;;;6.30;;
30617;SDS011;17384;51.214;9.202;2022-11-15T04:39:36;13.40;;;5.93;;
30617;SDS011;17384;51.214;9.202;2022-11-15T04:42:02;11.77;;;5.15;;
30617;SDS011;17384;51.214;9.202;2022-11-15T04:44:27;13.38;;;6.63;;
30617;SDS011;17384;51.214;9.202;2022-11-15T04:46:52;12.60;;;6.28;;
30617;SDS011;17384;51.214;9.202;2022-11-15T04:49:18;10.45;;;5.75;;
30617;SDS011;17384;51.214;9.202;2022-11-15T04:51:44;8.48;;;5.35;;
30617;SDS011;17384;51.214;9.202;2022-11-15T04:54:09;10.82;;;6.05;;
30617;SDS011;17384;51.214;9.202;2022-11-15T04:56:34;11.10;;;6.32;;
30617;SDS011;17384;51.214;9.202;2022-11-15T04:58:59;10.23;;;6.05;;
30617;SDS011;17384;51.214;9.202;2022-11-15T05:01:25;11.68;;;6.30;;
30617;SDS011;17384;51.214;9.202;2022-11-15T05:03:50;12.82;;;5.47;;
30617;SDS011;17384;51.214;9.202;2022-11-15T05:06:34;9.52;;;6.18;;
30617;SDS011;17384;51.214;9.202;2022-11-15T05:08:59;11.23;;;5.68;;
30617;SDS011;17384;51.214;9.202;2022-11-15T05:11:24;12.75;;;5.75;;
30617;SDS011;17384;51.214;9.202;2022-11-15T05:13:50;8.60;;;5.68;;
30617;SDS011;17384;51.214;9.202;2022-11-15T05:16:15;8.27;;;5.40;;
30617;SDS011;17384;51.214;9.202;2022-11-15T05:18:41;10.73;;;5.85;;
30617;SDS011;17384;51.214;9.202;2022-11-15T05:21:07;9.10;;;5.43;;
30617;SDS011;17384;51.214;9.202;2022-11-15T05:23:32;14.13;;;5.75;;
30617;SDS011;17384;51.214;9.202;2022-11-15T05:26:00;6.72;;;4.65;;
30617;SDS011;17384;51.214;9.202;2022-11-15T05:28:26;10.73;;;5.40;;
30617;SDS011;17384;51.214;9.202;2022-11-15T05:30:52;10.63;;;5.97;;
30617;SDS011;17384;51.214;9.202;2022-11-15T05:33:17;8.02;;;6.15;;
30617;SDS011;17384;51.214;9.202;2022-11-15T05:35:46;10.77;;;5.72;;
30617;SDS011;17384;51.214;9.202;2022-11-15T05:38:13;12.27;;;5.53;;
30617;SDS011;17384;51.214;9.202;2022-11-15T05:40:39;9.18;;;5.28;;
30617;SDS011;17384;51.214;9.202;2022-11-15T05:43:04;11.55;;;5.63;;
30617;SDS011;17384;51.214;9.202;2022-11-15T05:45:30;8.68;;;4.95;;
30617;SDS011;17384;51.214;9.202;2022-11-15T05:47:56;9.85;;;4.90;;
30617;SDS011;17384;51.214;9.202;2022-11-15T05:50:22;7.03;;;5.22;;
30617;SDS011;17384;51.214;9.202;2022-11-15T05:52:48;7.65;;;4.47;;
30617;SDS011;17384;51.214;9.202;2022-11-15T05:55:13;7.72;;;4.80;;
30617;SDS011;17384;51.214;9.202;2022-11-15T05:57:39;10.10;;;5.47;;
30617;SDS011;17384;51.214;9.202;2022-11-15T06:00:04;11.00;;;5.25;;
30617;SDS011;17384;51.214;9.202;2022-11-15T06:02:30;8.68;;;5.07;;
30617;SDS011;17384;51.214;9.202;2022-11-15T06:04:55;13.45;;;4.97;;
30617;SDS011;17384;51.214;9.202;2022-11-15T06:07:21;11.85;;;5.40;;
30617;SDS011;17384;51.214;9.202;2022-11-15T06:09:46;10.35;;;5.55;;
30617;SDS011;17384;51.214;9.202;2022-11-15T06:12:12;9.45;;;5.15;;
30617;SDS011;17384;51.214;9.202;2022-11-15T06:14:37;5.82;;;4.68;;
30617;SDS011;17384;51.214;9.202;2022-11-15T06:17:02;10.32;;;5.40;;
30617;SDS011;17384;51.214;9.202;2022-11-15T06:19:28;12.05;;;5.85;;
30617;SDS011;17384;51.214;9.202;2022-11-15T06:21:57;11.57;;;5.30;;
30617;SDS011;17384;51.214;9.202;2022-11-15T06:24:23;7.90;;;5.10;;
30617;SDS011;17384;51.214;9.202;2022-11-15T06:26:48;8.15;;;5.07;;
30617;SDS011;17384;51.214;9.202;2022-11-15T06:29:13;13.32;;;6.25;;
30617;SDS011;17384;51.214;9.202;2022-11-15T06:31:39;15.43;;;6.50;;
30617;SDS011;17384;51.214;9.202;2022-11-15T06:34:04;10.85;;;5.93;;
30617;SDS011;17384;51.214;9.202;2022-11-15T06:36:29;10.13;;;5.65;;
30617;SDS011;17384;51.214;9.202;2022-11-15T06:38:56;12.10;;;6.45;;
30617;SDS011;17384;51.214;9.202;2022-11-15T06:41:21;15.40;;;6.78;;
30617;SDS011;17384;51.214;9.202;2022-11-15T06:43:46;14.10;;;6.00;;
30617;SDS011;17384;51.214;9.202;2022-11-15T06:46:12;11.20;;;6.70;;
30617;SDS011;17384;51.214;9.202;2022-11-15T06:48:37;13.75;;;6.30;;
30617;SDS011;17384;51.214;9.202;2022-11-15T06:51:03;17.88;;;6.88;;
30617;SDS011;17384;51.214;9.202;2022-11-15T06:53:29;19.77;;;6.85;;
30617;SDS011;17384;51.214;9.202;2022-11-15T06:55:57;16.20;;;7.25;;
30617;SDS011;17384;51.214;9.202;2022-11-15T06:58:23;14.77;;;7.25;;
30617;SDS011;17384;51.214;9.202;2022-11-15T07:00:48;11.27;;;6.70;;
30617;SDS011;17384;51.214;9.202;2022-11-15T07:03:13;16.58;;;7.32;;
30617;SDS011;17384;51.214;9.202;2022-11-15T07:05:39;10.45;;;6.95;;
30617;SDS011;17384;51.214;9.202;2022-11-15T07:08:04;12.52;;;7.05;;
30617;SDS011;17384;51.214;9.202;2022-11-15T07:10:30;10.50;;;6.53;;
30617;SDS011;17384;51.214;9.202;2022-11-15T07:12:55;14.10;;;7.20;;
30617;SDS011;17384;51.214;9.202;2022-11-15T07:15:22;13.95;;;6.50;;
30617;SDS011;17384;51.214;9.202;2022-11-15T07:17:48;10.25;;;6.68;;
30617;SDS011;17384;51.214;9.202;2022-11-15T07:20:14;10.07;;;6.75;;
30617;SDS011;17384;51.214;9.202;2022-11-15T07:22:40;8.77;;;6.30;;
30617;SDS011;17384;51.214;9.202;2022-11-15T07:25:05;10.57;;;5.68;;
30617;SDS011;17384;51.214;9.202;2022-11-15T07:27:31;10.52;;;6.05;;
30617;SDS011;17384;51.214;9.202;2022-11-15T07:29:56;9.57;;;5.82;;
30617;SDS011;17384;51.214;9.202;2022-11-15T07:32:21;8.30;;;5.60;;
30617;SDS011;17384;51.214;9.202;2022-11-15T07:34:47;11.68;;;6.07;;
30617;SDS011;17384;51.214;9.202;2022-11-15T07:37:12;11.35;;;6.03;;
30617;SDS011;17384;51.214;9.202;2022-11-15T07:39:37;13.65;;;5.82;;
30617;SDS011;17384;51.214;9.202;2022-11-15T07:42:03;10.20;;;5.32;;
30617;SDS011;17384;51.214;9.202;2022-11-15T07:44:47;12.48;;;5.90;;
30617;SDS011;17384;51.214;9.202;2022-11-15T07:47:12;11.10;;;6.15;;
30617;SDS011;17384;51.214;9.202;2022-11-15T07:49:38;10.77;;;5.50;;
30617;SDS011;17384;51.214;9.202;2022-11-15T07:52:03;12.30;;;5.43;;
30617;SDS011;17384;51.214;9.202;2022-11-15T07:54:28;10.88;;;5.68;;
30617;SDS011;17384;51.214;9.202;2022-11-15T07:56:54;7.65;;;5.32;;
30617;SDS011;17384;51.214;9.202;2022-11-15T07:59:19;16.60;;;5.47;;
30617;SDS011;17384;51.214;9.202;2022-11-15T08:01:44;13.95;;;6.05;;
30617;SDS011;17384;51.214;9.202;2022-11-15T08:04:10;11.82;;;5.32;;
30617;SDS011;17384;51.214;9.202;2022-11-15T08:06:36;9.60;;;5.20;;
30617;SDS011;17384;51.214;9.202;2022-11-15T08:09:01;8.63;;;5.50;;
30617;SDS011;17384;51.214;9.202;2022-11-15T08:11:26;9.43;;;5.13;;
30617;SDS011;17384;51.214;9.202;2022-11-15T08:13:52;10.85;;;5.90;;
30617;SDS011;17384;51.214;9.202;2022-11-15T08:16:17;8.27;;;5.25;;
30617;SDS011;17384;51.214;9.202;2022-11-15T08:18:42;11.45;;;6.30;;
30617;SDS011;17384;51.214;9.202;2022-11-15T08:21:08;12.70;;;5.80;;
30617;SDS011;17384;51.214;9.202;2022-11-15T08:23:34;12.02;;;5.20;;
30617;SDS011;17384;51.214;9.202;2022-11-15T08:26:00;11.38;;;5.53;;
30617;SDS011;17384;51.214;9.202;2022-11-15T08:28:26;13.00;;;6.20;;
30617;SDS011;17384;51.214;9.202;2022-11-15T08:30:51;13.55;;;5.68;;
30617;SDS011;17384;51.214;9.202;2022-11-15T08:33:17;7.97;;;5.30;;
30617;SDS011;17384;51.214;9.202;2022-11-15T08:35:42;9.27;;;4.80;;
30617;SDS011;17384;51.214;9.202;2022-11-15T08:38:08;10.93;;;5.32;;
30617;SDS011;17384;51.214;9.202;2022-11-15T08:40:34;11.32;;;4.70;;
30617;SDS011;17384;51.214;9.202;2022-11-15T08:43:00;9.27;;;4.80;;
30617;SDS011;17384;51.214;9.202;2022-11-15T08:45:27;10.25;;;4.80;;
30617;SDS011;17384;51.214;9.202;2022-11-15T08:47:53;8.18;;;4.53;;
30617;SDS011;17384;51.214;9.202;2022-11-15T08:50:18;9.30;;;4.75;;
30617;SDS011;17384;51.214;9.202;2022-11-15T08:52:43;19.10;;;4.97;;
30617;SDS011;17384;51.214;9.202;2022-11-15T08:55:09;11.57;;;4.18;;
30617;SDS011;17384;51.214;9.202;2022-11-15T08:57:34;10.13;;;4.35;;
30617;SDS011;17384;51.214;9.202;2022-11-15T08:59:59;10.50;;;4.85;;
30617;SDS011;17384;51.214;9.202;2022-11-15T09:02:25;15.07;;;4.70;;
30617;SDS011;17384;51.214;9.202;2022-11-15T09:04:50;6.72;;;4.38;;
30617;SDS011;17384;51.214;9.202;2022-11-15T09:07:15;7.90;;;3.60;;
30617;SDS011;17384;51.214;9.202;2022-11-15T09:09:41;10.05;;;3.88;;
30617;SDS011;17384;51.214;9.202;2022-11-15T09:12:06;7.93;;;4.50;;
30617;SDS011;17384;51.214;9.202;2022-11-15T09:14:32;6.40;;;4.10;;
30617;SDS011;17384;51.214;9.202;2022-11-15T09:16:57;7.25;;;4.25;;
30617;SDS011;17384;51.214;9.202;2022-11-15T09:19:23;8.98;;;4.82;;
30617;SDS011;17384;51.214;9.202;2022-11-15T09:21:48;5.93;;;3.95;;
30617;SDS011;17384;51.214;9.202;2022-11-15T09:24:14;7.00;;;3.95;;
30617;SDS011;17384;51.214;9.202;2022-11-15T09:26:39;9.40;;;4.30;;
30617;SDS011;17384;51.214;9.202;2022-11-15T09:29:05;7.03;;;4.32;;
30617;SDS011;17384;51.214;9.202;2022-11-15T09:31:30;6.15;;;4.22;;
30617;SDS011;17384;51.214;9.202;2022-11-15T09:33:55;7.03;;;4.28;;
30617;SDS011;17384;51.214;9.202;2022-11-15T09:36:21;8.35;;;4.10;;
30617;SDS011;17384;51.214;9.202;2022-11-15T09:38:46;5.50;;;3.72;;
30617;SDS011;17384;51.214;9.202;2022-11-15T09:43:40;9.50;;;4.25;;
30617;SDS011;17384;51.214;9.202;2022-11-15T09:46:16;12.32;;;5.28;;
30617;SDS011;17384;51.214;9.202;2022-11-15T09:48:53;12.35;;;4.15;;
30617;SDS011;17384;51.214;9.202;2022-11-15T09:51:21;5.75;;;4.03;;
30617;SDS011;17384;51.214;9.202;2022-11-15T09:53:51;8.52;;;4.50;;
30617;SDS011;17384;51.214;9.202;2022-11-15T09:56:21;5.10;;;3.53;;
30617;SDS011;17384;51.214;9.202;2022-11-15T10:01:17;10.70;;;4.57;;
30617;SDS011;17384;51.214;9.202;2022-11-15T10:03:44;6.80;;;4.70;;
30617;SDS011;17384;51.214;9.202;2022-11-15T10:06:20;10.73;;;4.38;;
30617;SDS011;17384;51.214;9.202;2022-11-15T10:08:51;8.70;;;4.60;;
30617;SDS011;17384;51.214;9.202;2022-11-15T10:11:20;8.90;;;3.70;;
30617;SDS011;17384;51.214;9.202;2022-11-15T10:13:47;7.57;;;4.35;;
30617;SDS011;17384;51.214;9.202;2022-11-15T10:18:58;9.35;;;4.75;;
30617;SDS011;17384;51.214;9.202;2022-11-15T10:21:32;7.65;;;4.43;;
30617;SDS011;17384;51.214;9.202;2022-11-15T10:24:16;7.57;;;3.88;;
30617;SDS011;17384;51.214;9.202;2022-11-15T10:26:47;9.02;;;4.38;;
30617;SDS011;17384;51.214;9.202;2022-11-15T10:29:17;7.95;;;4.38;;
30617;SDS011;17384;51.214;9.202;2022-11-15T10:31:43;9.88;;;4.20;;
30617;SDS011;17384;51.214;9.202;2022-11-15T10:34:15;6.00;;;3.65;;
30617;SDS011;17384;51.214;9.202;2022-11-15T10:36:56;5.47;;;3.97;;
30617;SDS011;17384;51.214;9.202;2022-11-15T10:39:22;6.97;;;3.92;;
30617;SDS011;17384;51.214;9.202;2022-11-15T10:41:48;7.72;;;4.03;;
30617;SDS011;17384;51.214;9.202;2022-11-15T10:46:42;6.47;;;4.03;;
30617;SDS011;17384;51.214;9.202;2022-11-15T10:51:47;7.43;;;4.05;;
30617;SDS011;17384;51.214;9.202;2022-11-15T10:54:13;6.45;;;4.00;;
30617;SDS011;17384;51.214;9.202;2022-11-15T10:56:40;7.53;;;4.20;;
30617;SDS011;17384;51.214;9.202;2022-11-15T10:59:09;9.68;;;4.38;;
30617;SDS011;17384;51.214;9.202;2022-11-15T11:01:45;16.48;;;11.98;;
30617;SDS011;17384;51.214;9.202;2022-11-15T11:04:10;8.43;;;4.07;;
30617;SDS011;17384;51.214;9.202;2022-11-15T11:06:52;8.60;;;3.10;;
30617;SDS011;17384;51.214;9.202;2022-11-15T11:09:21;11.65;;;5.45;;
30617;SDS011;17384;51.214;9.202;2022-11-15T11:11:48;5.05;;;3.00;;
30617;SDS011;17384;51.214;9.202;2022-11-15T11:14:21;13.95;;;7.38;;
30617;SDS011;17384;51.214;9.202;2022-11-15T11:16:49;3.75;;;2.65;;
30617;SDS011;17384;51.214;9.202;2022-11-15T11:21:48;4.72;;;2.40;;
30617;SDS011;17384;51.214;9.202;2022-11-15T11:37:07;3.30;;;2.60;;
30617;SDS011;17384;51.214;9.202;2022-11-15T11:52:12;4.73;;;2.50;;
30617;SDS011;17384;51.214;9.202;2022-11-15T11:57:13;2.88;;;1.83;;
30617;SDS011;17384;51.214;9.202;2022-11-15T11:59:53;3.53;;;2.53;;
30617;SDS011;17384;51.214;9.202;2022-11-15T12:02:25;5.00;;;2.58;;
30617;SDS011;17384;51.214;9.202;2022-11-15T12:04:53;2.45;;;1.90;;
30617;SDS011;17384;51.214;9.202;2022-11-15T12:07:23;12.38;;;2.30;;
30617;SDS011;17384;51.214;9.202;2022-11-15T12:09:57;4.90;;;2.60;;
30617;SDS011;17384;51.214;9.202;2022-11-15T12:14:53;3.87;;;1.53;;
30617;SDS011;17384;51.214;9.202;2022-11-15T12:17:23;5.97;;;2.03;;
30617;SDS011;17384;51.214;9.202;2022-11-15T12:19:49;5.63;;;1.98;;
30617;SDS011;17384;51.214;9.202;2022-11-15T12:22:22;3.28;;;2.08;;
30617;SDS011;17384;51.214;9.202;2022-11-15T12:27:24;5.90;;;2.50;;
30617;SDS011;17384;51.214;9.202;2022-11-15T12:29:58;2.67;;;1.92;;
30617;SDS011;17384;51.214;9.202;2022-11-15T12:32:29;7.00;;;2.90;;
30617;SDS011;17384;51.214;9.202;2022-11-15T12:34:56;3.42;;;1.70;;
30617;SDS011;17384;51.214;9.202;2022-11-15T12:44:56;7.13;;;3.00;;
30617;SDS011;17384;51.214;9.202;2022-11-15T12:47:24;3.25;;;2.03;;
30617;SDS011;17384;51.214;9.202;2022-11-15T12:49:50;3.58;;;2.13;;
30617;SDS011;17384;51.214;9.202;2022-11-15T12:52:15;4.45;;;2.28;;
30617;SDS011;17384;51.214;9.202;2022-11-15T13:02:22;4.57;;;2.47;;
30617;SDS011;17384;51.214;9.202;2022-11-15T13:04:48;2.85;;;2.28;;
30617;SDS011;17384;51.214;9.202;2022-11-15T13:09:58;4.35;;;2.25;;
30617;SDS011;17384;51.214;9.202;2022-11-15T13:14:52;4.65;;;2.20;;
30617;SDS011;17384;51.214;9.202;2022-11-15T13:17:28;6.30;;;2.63;;
30617;SDS011;17384;51.214;9.202;2022-11-15T13:20:00;7.10;;;3.00;;
30617;SDS011;17384;51.214;9.202;2022-11-15T13:22:37;6.20;;;2.45;;
30617;SDS011;17384;51.214;9.202;2022-11-15T13:27:50;4.20;;;2.50;;
30617;SDS011;17384;51.214;9.202;2022-11-15T13:30:19;5.32;;;2.67;;
30617;SDS011;17384;51.214;9.202;2022-11-15T13:32:45;5.95;;;2.88;;
30617;SDS011;17384;51.214;9.202;2022-11-15T13:35:18;6.28;;;3.13;;
30617;SDS011;17384;51.214;9.202;2022-11-15T13:37:44;3.47;;;2.80;;
30617;SDS011;17384;51.214;9.202;2022-11-15T13:40:18;3.40;;;2.10;;
30617;SDS011;17384;51.214;9.202;2022-11-15T13:42:44;4.05;;;2.45;;
30617;SDS011;17384;51.214;9.202;2022-11-15T13:45:12;6.45;;;2.65;;
30617;SDS011;17384;51.214;9.202;2022-11-15T13:47:38;6.07;;;2.55;;
30617;SDS011;17384;51.214;9.202;2022-11-15T13:50:03;3.65;;;2.60;;
30617;SDS011;17384;51.214;9.202;2022-11-15T13:52:35;3.90;;;2.40;;
30617;SDS011;17384;51.214;9.202;2022-11-15T13:55:09;8.65;;;2.80;;
30617;SDS011;17384;51.214;9.202;2022-11-15T13:57:45;8.60;;;3.17;;
30617;SDS011;17384;51.214;9.202;2022-11-15T14:02:51;8.25;;;2.70;;
30617;SDS011;17384;51.214;9.202;2022-11-15T14:05:18;5.18;;;2.72;;
30617;SDS011;17384;51.214;9.202;2022-11-15T14:07:58;3.58;;;2.60;;
30617;SDS011;17384;51.214;9.202;2022-11-15T14:10:31;5.15;;;2.70;;
30617;SDS011;17384;51.214;9.202;2022-11-15T14:12:57;5.20;;;2.60;;
30617;SDS011;17384;51.214;9.202;2022-11-15T14:15:27;6.30;;;3.38;;
30617;SDS011;17384;51.214;9.202;2022-11-15T14:17:53;5.50;;;3.03;;
30617;SDS011;17384;51.214;9.202;2022-11-15T14:20:24;6.75;;;3.30;;
30617;SDS011;17384;51.214;9.202;2022-11-15T14:22:53;4.55;;;3.10;;
30617;SDS011;17384;51.214;9.202;2022-11-15T14:25:19;7.80;;;3.50;;
30617;SDS011;17384;51.214;9.202;2022-11-15T14:30:29;6.80;;;3.08;;
30617;SDS011;17384;51.214;9.202;2022-11-15T14:32:54;5.75;;;3.00;;
30617;SDS011;17384;51.214;9.202;2022-11-15T14:35:20;5.90;;;2.88;;
30617;SDS011;17384;51.214;9.202;2022-11-15T14:37:46;6.53;;;3.53;;
30617;SDS011;17384;51.214;9.202;2022-11-15T14:40:16;8.43;;;4.25;;
30617;SDS011;17384;51.214;9.202;2022-11-15T14:42:42;9.18;;;4.00;;
30617;SDS011;17384;51.214;9.202;2022-11-15T14:45:19;5.55;;;3.35;;
30617;SDS011;17384;51.214;9.202;2022-11-15T14:47:45;12.00;;;3.22;;
30617;SDS011;17384;51.214;9.202;2022-11-15T14:50:13;5.70;;;3.25;;
30617;SDS011;17384;51.214;9.202;2022-11-15T14:52:39;8.18;;;3.80;;
30617;SDS011;17384;51.214;9.202;2022-11-15T14:55:10;6.90;;;4.35;;
30617;SDS011;17384;51.214;9.202;2022-11-15T14:57:36;9.95;;;3.85;;
30617;SDS011;17384;51.214;9.202;2022-11-15T15:00:02;4.65;;;3.42;;
30617;SDS011;17384;51.214;9.202;2022-11-15T15:02:28;10.25;;;5.15;;
30617;SDS011;17384;51.214;9.202;2022-11-15T15:04:53;7.25;;;3.40;;
30617;SDS011;17384;51.214;9.202;2022-11-15T15:07:18;5.70;;;3.33;;
30617;SDS011;17384;51.214;9.202;2022-11-15T15:09:44;4.38;;;3.30;;
30617;SDS011;17384;51.214;9.202;2022-11-15T15:12:20;6.03;;;3.65;;
30617;SDS011;17384;51.214;9.202;2022-11-15T15:14:45;5.10;;;3.10;;
30617;SDS011;17384;51.214;9.202;2022-11-15T15:17:11;3.05;;;2.53;;
30617;SDS011;17384;51.214;9.202;2022-11-15T15:19:37;6.10;;;3.17;;
30617;SDS011;17384;51.214;9.202;2022-11-15T15:22:02;6.05;;;3.13;;
30617;SDS011;17384;51.214;9.202;2022-11-15T15:24:27;8.30;;;2.78;;
30617;SDS011;17384;51.214;9.202;2022-11-15T15:26:53;7.50;;;3.70;;
30617;SDS011;17384;51.214;9.202;2022-11-15T15:29:18;9.03;;;3.77;;
30617;SDS011;17384;51.214;9.202;2022-11-15T15:31:43;8.77;;;2.83;;
30617;SDS011;17384;51.214;9.202;2022-11-15T15:34:10;5.13;;;2.83;;
30617;SDS011;17384;51.214;9.202;2022-11-15T15:36:35;4.85;;;2.30;;
30617;SDS011;17384;51.214;9.202;2022-11-15T15:39:01;4.75;;;2.83;;
30617;SDS011;17384;51.214;9.202;2022-11-15T15:41:26;4.40;;;2.67;;
30617;SDS011;17384;51.214;9.202;2022-11-15T15:43:51;8.23;;;3.45;;
30617;SDS011;17384;51.214;9.202;2022-11-15T15:46:17;4.30;;;2.93;;
30617;SDS011;17384;51.214;9.202;2022-11-15T15:48:43;4.45;;;2.88;;
30617;SDS011;17384;51.214;9.202;2022-11-15T15:51:09;9.10;;;3.20;;
30617;SDS011;17384;51.214;9.202;2022-11-15T15:53:36;5.10;;;2.72;;
30617;SDS011;17384;51.214;9.202;2022-11-15T15:56:01;5.85;;;3.20;;
30617;SDS011;17384;51.214;9.202;2022-11-15T15:58:26;5.03;;;3.03;;
30617;SDS011;17384;51.214;9.202;2022-11-15T16:00:52;7.22;;;3.20;;
30617;SDS011;17384;51.214;9.202;2022-11-15T16:03:17;4.15;;;2.80;;
30617;SDS011;17384;51.214;9.202;2022-11-15T16:05:42;8.68;;;3.28;;
30617;SDS011;17384;51.214;9.202;2022-11-15T16:08:18;7.55;;;2.85;;
30617;SDS011;17384;51.214;9.202;2022-11-15T16:10:46;3.58;;;2.40;;
30617;SDS011;17384;51.214;9.202;2022-11-15T16:13:11;5.70;;;2.85;;
30617;SDS011;17384;51.214;9.202;2022-11-15T16:15:37;4.55;;;2.47;;
30617;SDS011;17384;51.214;9.202;2022-11-15T16:18:03;6.38;;;2.97;;
30617;SDS011;17384;51.214;9.202;2022-11-15T16:22:53;3.63;;;2.60;;
30617;SDS011;17384;51.214;9.202;2022-11-15T16:25:19;3.90;;;2.58;;
30617;SDS011;17384;51.214;9.202;2022-11-15T16:27:44;8.95;;;2.65;;
30617;SDS011;17384;51.214;9.202;2022-11-15T16:30:14;5.10;;;2.80;;
30617;SDS011;17384;51.214;9.202;2022-11-15T16:32:40;6.55;;;2.20;;
30617;SDS011;17384;51.214;9.202;2022-11-15T16:35:05;4.15;;;2.33;;
30617;SDS011;17384;51.214;9.202;2022-11-15T16:37:31;6.18;;;2.80;;